Terminal Aerodrome Forecast
Issued by NWS

Home | Current Version | Previous Version | Text Only | Print | Product List | Glossary On
Versions: 1 2 3 4 5 6 7 8 9 10 11 12 13 14 15 16
968
FTUS43 KGRB 291129
TAFAUW
TAF
KAUW 291129Z 2912/3012 01005KT P6SM SCT010 SCT050
      TEMPO 2912/2916 BKN050
     FM292000 06006KT P6SM SCT050 BKN120
     FM300200 08004KT P6SM FEW070 SCT120=

USA.gov is the U.S. government's official web portal to all federal, state and local government web resources and services.